createdAt,value
2022-11-22T00:01:48.591Z,99350.77
2022-11-22T00:04:17.503Z,99344.87
2022-11-22T00:06:46.952Z,99352.52
2022-11-22T00:09:15.345Z,99364.42
2022-11-22T00:11:43.800Z,99364.80
2022-11-22T00:14:16.945Z,99360.73
2022-11-22T00:16:45.388Z,99369.55
2022-11-22T00:19:20.071Z,99377.15
2022-11-22T00:21:48.480Z,99367.58
2022-11-22T00:24:16.845Z,99354.46
2022-11-22T00:26:45.367Z,99350.36
2022-11-22T00:29:14.949Z,99349.65
2022-11-22T00:31:43.384Z,99345.37
2022-11-22T00:34:11.833Z,99336.69
2022-11-22T00:36:40.185Z,99331.05
2022-11-22T00:39:08.542Z,99341.45
2022-11-22T00:41:36.908Z,99343.36
2022-11-22T00:44:30.620Z,99345.45
2022-11-22T00:46:59.086Z,99337.70
2022-11-22T00:49:27.964Z,99331.06
2022-11-22T00:51:56.561Z,99333.38
2022-11-22T00:54:25.011Z,99327.04
2022-11-22T00:56:53.446Z,99330.81
2022-11-22T00:59:21.828Z,99329.39
2022-11-22T01:01:50.278Z,99327.12
2022-11-22T01:04:18.691Z,99326.07
2022-11-22T01:06:47.259Z,99323.34
2022-11-22T01:09:22.182Z,99318.92
2022-11-22T01:11:51.565Z,99310.38
2022-11-22T01:14:20.865Z,99302.88
2022-11-22T01:16:49.373Z,99299.71
2022-11-22T01:19:17.793Z,99295.14
2022-11-22T01:21:46.231Z,99296.38
2022-11-22T01:24:14.674Z,99303.73
2022-11-22T01:26:43.147Z,99297.62
2022-11-22T01:29:11.594Z,99296.64
2022-11-22T01:31:40.001Z,99288.38
2022-11-22T01:34:08.436Z,99279.92
2022-11-22T01:36:36.904Z,99277.90
2022-11-22T01:39:05.336Z,99276.33
2022-11-22T01:41:33.833Z,99276.16
2022-11-22T01:44:29.580Z,99282.83
2022-11-22T01:47:11.086Z,99282.17
2022-11-22T01:49:48.410Z,99274.87
2022-11-22T01:52:20.108Z,99261.15
2022-11-22T01:54:57.541Z,99260.31
2022-11-22T01:57:30.428Z,99252.34
2022-11-22T02:00:04.829Z,99248.95
2022-11-22T02:02:35.198Z,99250.98
2022-11-22T02:05:10.127Z,99259.35
2022-11-22T02:07:53.142Z,99269.05
2022-11-22T02:10:25.618Z,99279.21
2022-11-22T02:12:58.308Z,99285.66
2022-11-22T02:15:26.904Z,99288.75
2022-11-22T02:17:57.813Z,99287.91
2022-11-22T02:20:26.236Z,99284.15
2022-11-22T02:23:09.524Z,99289.05
2022-11-22T02:25:37.892Z,99291.55
2022-11-22T02:28:06.705Z,99295.56
2022-11-22T02:30:37.116Z,99289.45
2022-11-22T02:33:05.514Z,99287.95
2022-11-22T02:35:34.759Z,99285.75
2022-11-22T02:38:22.333Z,99292.70
2022-11-22T02:40:56.370Z,99298.45
2022-11-22T02:43:40.473Z,99293.00
2022-11-22T02:46:12.201Z,99293.38
2022-11-22T02:48:44.749Z,99291.88
2022-11-22T02:51:17.329Z,99288.99
2022-11-22T02:53:47.795Z,99285.25
2022-11-22T02:56:17.362Z,99280.85
2022-11-22T02:58:46.268Z,99277.15
2022-11-22T03:01:14.783Z,99278.66
2022-11-22T03:03:43.212Z,99273.57
2022-11-22T03:06:11.762Z,99275.95
2022-11-22T03:08:40.164Z,99274.41
2022-11-22T03:11:08.628Z,99269.46
2022-11-22T03:13:37.107Z,99270.98
2022-11-22T03:16:05.804Z,99273.52
2022-11-22T03:18:35.364Z,99281.14
2022-11-22T03:21:09.024Z,99287.73
2022-11-22T03:23:37.505Z,99290.45
2022-11-22T03:26:10.352Z,99286.73
2022-11-22T03:28:38.785Z,99275.86
2022-11-22T03:31:08.366Z,99274.86
2022-11-22T03:33:36.762Z,99269.95
2022-11-22T03:36:05.509Z,99276.23
2022-11-22T03:38:35.598Z,99278.31
2022-11-22T03:41:03.941Z,99280.89
2022-11-22T03:44:29.740Z,99275.45
2022-11-22T03:46:58.099Z,99271.20
2022-11-22T03:49:26.538Z,99262.72
2022-11-22T03:51:54.988Z,99250.31
2022-11-22T03:54:23.348Z,99245.73
2022-11-22T03:56:51.730Z,99244.70
2022-11-22T03:59:20.130Z,99244.36
2022-11-22T04:01:48.513Z,99247.77
2022-11-22T04:04:17.052Z,99244.36
2022-11-22T04:06:45.428Z,99245.02
2022-11-22T04:09:13.844Z,99235.33
2022-11-22T04:11:42.286Z,99225.98
2022-11-22T04:14:31.562Z,99229.94
2022-11-22T04:16:59.920Z,99230.97
2022-11-22T04:19:28.702Z,99226.20
2022-11-22T04:21:57.454Z,99228.57
2022-11-22T04:24:44.172Z,99227.41
2022-11-22T04:27:12.533Z,99229.97
2022-11-22T04:29:40.902Z,99230.64
2022-11-22T04:32:29.622Z,99225.90
2022-11-22T04:34:58.083Z,99226.22
2022-11-22T04:37:26.416Z,99225.90
2022-11-22T04:39:54.807Z,99230.67
2022-11-22T04:43:13.369Z,99236.64
2022-11-22T04:45:42.039Z,99241.73
2022-11-22T04:48:12.631Z,99247.00
2022-11-22T04:51:00.646Z,99250.70
2022-11-22T04:53:30.165Z,99245.77
2022-11-22T04:55:58.855Z,99253.27
2022-11-22T04:58:27.234Z,99258.54
2022-11-22T05:00:55.629Z,99262.63
2022-11-22T05:03:24.136Z,99265.05
2022-11-22T05:05:52.566Z,99267.09
2022-11-22T05:08:21.393Z,99265.70
2022-11-22T05:10:58.760Z,99267.54
2022-11-22T05:13:28.700Z,99271.43
2022-11-22T05:15:58.009Z,99268.73
2022-11-22T05:18:28.671Z,99276.20
2022-11-22T05:20:57.685Z,99272.77
2022-11-22T05:23:44.751Z,99270.20
2022-11-22T05:26:13.117Z,99276.35
2022-11-22T05:28:41.586Z,99275.53
2022-11-22T05:31:12.469Z,99274.55
2022-11-22T05:33:42.897Z,99274.21
2022-11-22T05:36:12.751Z,99276.60
2022-11-22T05:38:41.258Z,99270.85
2022-11-22T05:41:13.282Z,99268.83
2022-11-22T05:43:57.812Z,99271.52
2022-11-22T05:46:30.944Z,99274.41
2022-11-22T05:48:59.431Z,99270.19
2022-11-22T05:51:34.826Z,99268.98
2022-11-22T05:54:04.379Z,99269.66
2022-11-22T05:56:32.820Z,99268.98
2022-11-22T05:59:01.361Z,99266.11
2022-11-22T06:01:29.672Z,99269.52
2022-11-22T06:03:58.576Z,99275.63
2022-11-22T06:06:27.000Z,99278.02
2022-11-22T06:08:55.519Z,99275.14
2022-11-22T06:11:26.909Z,99271.56
2022-11-22T06:13:58.360Z,99270.54
2022-11-22T06:16:27.933Z,99273.77
2022-11-22T06:18:57.266Z,99270.02
2022-11-22T06:21:26.875Z,99274.11
2022-11-22T06:23:56.146Z,99283.77
2022-11-22T06:26:26.823Z,99285.50
2022-11-22T06:28:55.752Z,99280.56
2022-11-22T06:31:26.635Z,99278.52
2022-11-22T06:33:57.923Z,99275.15
2022-11-22T06:36:35.676Z,99276.16
2022-11-22T06:39:05.066Z,99276.33
2022-11-22T06:41:36.869Z,99277.34
2022-11-22T06:44:08.229Z,99275.50
2022-11-22T06:46:38.059Z,99275.48
2022-11-22T06:49:06.509Z,99278.70
2022-11-22T06:51:35.134Z,99287.02
2022-11-22T06:54:03.528Z,99301.62
2022-11-22T06:56:37.021Z,99305.69
2022-11-22T06:59:06.896Z,99303.81
2022-11-22T07:01:36.493Z,99309.77
2022-11-22T07:04:05.580Z,99301.78
2022-11-22T07:06:36.313Z,99310.09
2022-11-22T07:09:07.899Z,99312.43
2022-11-22T07:11:36.545Z,99315.61
2022-11-22T07:14:08.682Z,99324.09
2022-11-22T07:16:39.193Z,99324.09
2022-11-22T07:19:08.408Z,99329.15
2022-11-22T07:21:37.887Z,99325.90
2022-11-22T07:24:07.570Z,99324.52
2022-11-22T07:26:36.031Z,99334.04
2022-11-22T07:29:04.768Z,99331.98
2022-11-22T07:31:33.411Z,99331.31
2022-11-22T07:34:01.903Z,99328.80
2022-11-22T07:36:30.671Z,99328.33
2022-11-22T07:38:59.200Z,99334.46
2022-11-22T07:41:27.589Z,99331.73
2022-11-22T07:43:56.212Z,99331.20
2022-11-22T07:46:30.004Z,99329.98
2022-11-22T07:48:58.534Z,99330.14
2022-11-22T07:51:27.306Z,99323.50
2022-11-22T07:53:56.997Z,99323.63
2022-11-22T07:56:25.569Z,99319.88
2022-11-22T07:58:53.939Z,99315.28
2022-11-22T08:01:22.688Z,99314.08
2022-11-22T08:03:51.232Z,99316.46
2022-11-22T08:06:19.549Z,99319.02
2022-11-22T08:08:48.023Z,99320.07
2022-11-22T08:11:16.862Z,99321.95
2022-11-22T08:13:45.292Z,99312.95
2022-11-22T08:16:16.257Z,99309.02
2022-11-22T08:18:49.398Z,99311.70
2022-11-22T08:21:19.104Z,99317.61
2022-11-22T08:23:48.571Z,99319.29
2022-11-22T08:26:18.545Z,99326.05
2022-11-22T08:28:47.020Z,99319.23
2022-11-22T08:31:20.182Z,99314.23
2022-11-22T08:33:49.110Z,99315.23
2022-11-22T08:36:17.569Z,99321.85
2022-11-22T08:38:45.953Z,99326.41
2022-11-22T08:41:14.539Z,99322.66
2022-11-22T08:43:43.132Z,99326.72
2022-11-22T08:46:11.817Z,99329.42
2022-11-22T08:48:40.246Z,99337.05
2022-11-22T08:51:10.494Z,99341.63
2022-11-22T08:53:41.300Z,99344.30
2022-11-22T08:56:13.540Z,99345.59
2022-11-22T08:58:42.591Z,99353.98
2022-11-22T09:01:16.865Z,99354.23
2022-11-22T09:03:45.825Z,99348.48
2022-11-22T09:09:43.168Z,99339.09
2022-11-22T09:11:55.357Z,99339.88
2022-11-22T09:14:23.718Z,99345.95
2022-11-22T09:16:52.215Z,99342.70
2022-11-22T09:19:20.530Z,99335.32
2022-11-22T09:21:49.114Z,99332.21
2022-11-22T09:24:17.513Z,99333.19
2022-11-22T09:26:45.863Z,99331.41
2022-11-22T09:29:16.045Z,99325.88
2022-11-22T09:31:44.583Z,99321.84
2022-11-22T09:34:12.915Z,99317.52
2022-11-22T09:36:41.398Z,99314.09
2022-11-22T09:39:09.945Z,99309.29
2022-11-22T09:41:50.246Z,99302.57
2022-11-22T09:44:45.483Z,99300.52
2022-11-22T09:47:34.975Z,99289.76
2022-11-22T09:50:31.488Z,99284.27
2022-11-22T09:53:05.187Z,99290.50
2022-11-22T09:55:52.677Z,99285.36
2022-11-22T09:58:51.980Z,99275.72
2022-11-22T10:01:29.092Z,99271.33
2022-11-22T10:04:29.266Z,99266.33
2022-11-22T10:07:06.523Z,99265.05
2022-11-22T10:09:51.552Z,99262.05
2022-11-22T10:12:23.397Z,99257.83
2022-11-22T10:15:30.963Z,99253.38
2022-11-22T10:18:11.979Z,99248.20
2022-11-22T10:20:48.461Z,99243.11
2022-11-22T10:23:26.137Z,99240.41
2022-11-22T10:25:59.906Z,99245.05
2022-11-22T10:29:07.297Z,99248.85
2022-11-22T10:31:44.784Z,99253.55
2022-11-22T10:34:35.343Z,99250.64
2022-11-22T10:37:28.450Z,99247.67
2022-11-22T10:39:59.573Z,99241.48
2022-11-22T10:43:20.780Z,99234.33
2022-11-22T10:46:17.010Z,99234.44
2022-11-22T10:49:00.086Z,99236.20
2022-11-22T10:51:58.008Z,99234.46
2022-11-22T10:54:36.117Z,99226.96
2022-11-22T10:57:19.679Z,99231.30
2022-11-22T10:59:55.540Z,99243.79
2022-11-22T11:02:32.970Z,99245.35
2022-11-22T11:05:05.845Z,99253.63
2022-11-22T11:07:35.062Z,99248.84
2022-11-22T11:10:27.547Z,99253.19
2022-11-22T11:13:14.843Z,99248.84
2022-11-22T11:15:52.702Z,99254.34
2022-11-22T11:19:01.586Z,99257.58
2022-11-22T11:21:30.053Z,99257.01
2022-11-22T11:23:58.491Z,99255.02
2022-11-22T11:26:34.863Z,99245.94
2022-11-22T11:29:18.454Z,99243.52
2022-11-22T11:31:52.542Z,99243.33
2022-11-22T11:34:23.073Z,99250.46
2022-11-22T11:36:54.627Z,99244.37
2022-11-22T11:39:45.957Z,99242.14
2022-11-22T11:42:32.202Z,99241.08
2022-11-22T11:45:33.392Z,99238.64
2022-11-22T11:48:01.910Z,99237.59
2022-11-22T11:50:33.296Z,99232.98
2022-11-22T11:53:07.211Z,99225.81
2022-11-22T11:55:36.835Z,99222.12
2022-11-22T11:58:19.949Z,99220.23
2022-11-22T12:00:48.534Z,99220.42
2022-11-22T12:03:20.112Z,99222.31
2022-11-22T12:05:48.592Z,99219.73
2022-11-22T12:08:31.385Z,99222.38
2022-11-22T12:11:06.498Z,99227.95
2022-11-22T12:16:54.853Z,99227.29
2022-11-22T12:19:29.288Z,99224.35
2022-11-22T12:22:48.095Z,99223.99
2022-11-22T12:25:32.647Z,99222.47
2022-11-22T12:28:23.735Z,99225.55
2022-11-22T12:31:01.348Z,99230.78
2022-11-22T12:33:40.310Z,99227.02
2022-11-22T12:36:41.287Z,99228.86
2022-11-22T12:39:16.223Z,99221.61
2022-11-22T12:41:48.836Z,99218.16
2022-11-22T12:44:21.042Z,99221.64
2022-11-22T12:46:56.765Z,99224.65
2022-11-22T12:49:48.173Z,99227.15
2022-11-22T12:52:16.465Z,99218.87
2022-11-22T12:55:09.646Z,99217.45
2022-11-22T12:57:46.859Z,99214.04
2022-11-22T13:00:19.060Z,99218.91
2022-11-22T13:02:54.510Z,99227.05
2022-11-22T13:05:30.835Z,99229.25
2022-11-22T13:08:35.704Z,99231.69
2022-11-22T13:11:03.930Z,99225.14
2022-11-22T13:13:42.657Z,99222.80
2022-11-22T13:16:13.070Z,99228.14
2022-11-22T13:18:56.716Z,99230.39
2022-11-22T13:21:50.107Z,99233.99
2022-11-22T13:24:46.715Z,99236.71
2022-11-22T13:27:25.325Z,99235.05
2022-11-22T13:29:58.690Z,99237.06
2022-11-22T13:32:34.969Z,99239.60
2022-11-22T13:35:12.459Z,99238.92
2022-11-22T13:37:53.780Z,99238.91
2022-11-22T13:40:30.414Z,99233.27
2022-11-22T13:43:21.208Z,99233.23
2022-11-22T13:46:02.069Z,99233.19
2022-11-22T13:48:42.516Z,99231.89
2022-11-22T13:51:15.638Z,99225.89
2022-11-22T13:53:46.198Z,99226.13
2022-11-22T13:56:17.528Z,99222.84
2022-11-22T13:58:51.296Z,99224.55
2022-11-22T14:01:40.540Z,99223.39
2022-11-22T14:04:17.769Z,99224.55
2022-11-22T14:06:49.771Z,99224.90
2022-11-22T14:09:40.809Z,99225.90
2022-11-22T14:12:31.984Z,99223.70
2022-11-22T14:15:29.875Z,99223.23
2022-11-22T14:18:07.047Z,99220.86
2022-11-22T14:20:40.288Z,99225.13
2022-11-22T14:23:11.616Z,99225.50
2022-11-22T14:25:43.004Z,99228.40
2022-11-22T14:28:20.587Z,99230.46
2022-11-22T14:30:55.595Z,99228.81
2022-11-22T14:33:31.220Z,99229.55
2022-11-22T14:36:09.852Z,99224.23
2022-11-22T14:38:40.417Z,99223.36
2022-11-22T14:41:27.364Z,99224.70
2022-11-22T14:44:07.650Z,99226.08
2022-11-22T14:46:54.951Z,99218.92
2022-11-22T14:49:33.584Z,99219.30
2022-11-22T14:52:02.768Z,99219.15
2022-11-22T14:54:48.800Z,99215.95
2022-11-22T14:57:21.217Z,99214.22
2022-11-22T15:00:18.470Z,99215.72
2022-11-22T15:03:07.750Z,99218.48
2022-11-22T15:09:10.284Z,99226.91
2022-11-22T15:09:16.278Z,99223.47
2022-11-22T15:11:52.619Z,99236.30
2022-11-22T15:14:30.267Z,99234.77
2022-11-22T15:58:14.098Z,99235.97
2022-11-22T16:00:45.438Z,99235.90
2022-11-22T16:03:27.254Z,99243.92
2022-11-22T16:06:11.780Z,99246.14
2022-11-22T16:08:58.319Z,99246.50
2022-11-22T16:11:31.831Z,99243.09
2022-11-22T16:14:01.292Z,99243.23
2022-11-22T16:16:35.245Z,99246.69
2022-11-22T16:19:24.878Z,99244.80
2022-11-22T16:22:02.099Z,99241.71
2022-11-22T16:24:32.740Z,99240.84
2022-11-22T16:27:12.698Z,99241.21
2022-11-22T16:29:51.838Z,99235.91
2022-11-22T16:32:20.837Z,99240.85
2022-11-22T16:35:21.762Z,99240.82
2022-11-22T16:37:48.254Z,99239.59
2022-11-22T16:40:18.676Z,99238.22
2022-11-22T16:42:48.878Z,99237.19
2022-11-22T16:45:20.773Z,99235.81
2022-11-22T16:48:03.904Z,99237.89
2022-11-22T16:50:41.949Z,99242.49
2022-11-22T16:53:16.840Z,99243.69
2022-11-22T16:55:45.651Z,99238.91
2022-11-22T16:58:17.818Z,99245.05
2022-11-22T17:00:50.878Z,99251.21
2022-11-22T17:03:30.557Z,99253.09
2022-11-22T17:05:59.432Z,99255.30
2022-11-22T17:08:29.340Z,99260.42
2022-11-22T17:10:58.552Z,99259.23
2022-11-22T17:13:29.420Z,99261.44
2022-11-22T17:15:59.219Z,99266.91
2022-11-22T17:18:29.446Z,99265.72
2022-11-22T17:21:00.155Z,99267.77
2022-11-22T17:23:43.535Z,99267.29
2022-11-22T17:26:13.281Z,99267.14
2022-11-22T17:28:43.112Z,99265.27
2022-11-22T17:31:20.167Z,99266.81
2022-11-22T17:33:52.740Z,99269.05
2022-11-22T17:36:35.782Z,99268.55
2022-11-22T17:41:50.984Z,99270.78
2022-11-22T17:45:02.851Z,99271.81
2022-11-22T17:47:33.258Z,99269.44
2022-11-22T17:50:03.725Z,99267.40
2022-11-22T17:52:33.490Z,99267.57
2022-11-22T17:55:06.278Z,99264.19
2022-11-22T17:57:37.956Z,99263.36
2022-11-22T18:00:10.941Z,99267.33
2022-11-22T18:02:47.043Z,99266.33
2022-11-22T18:05:17.377Z,99265.33
2022-11-22T18:07:48.319Z,99263.29
2022-11-22T18:10:17.959Z,99258.71
2022-11-22T18:13:13.516Z,99259.94
2022-11-22T18:15:39.550Z,99263.35
2022-11-22T18:18:21.938Z,99264.73
2022-11-22T18:21:01.670Z,99264.73
2022-11-22T18:23:36.737Z,99262.55
2022-11-22T18:29:39.094Z,99269.63
2022-11-22T18:31:56.072Z,99269.14
2022-11-22T18:34:26.600Z,99274.29
2022-11-22T18:37:01.277Z,99276.15
2022-11-22T18:39:39.273Z,99281.62
2022-11-22T18:42:15.847Z,99279.23
2022-11-22T18:44:46.367Z,99285.19
2022-11-22T18:47:16.703Z,99286.21
2022-11-22T18:52:50.212Z,99280.51
2022-11-22T18:55:20.521Z,99284.95
2022-11-22T18:58:03.706Z,99276.75
2022-11-22T19:00:33.365Z,99279.67
2022-11-22T19:03:05.848Z,99277.98
2022-11-22T19:05:35.495Z,99284.30
2022-11-22T19:08:04.144Z,99279.88
2022-11-22T19:10:34.184Z,99279.52
2022-11-22T19:13:04.582Z,99276.56
2022-11-22T19:15:36.472Z,99277.86
2022-11-22T19:18:10.804Z,99280.10
2022-11-22T19:20:54.705Z,99285.92
2022-11-22T19:23:24.782Z,99278.08
2022-11-22T19:25:54.667Z,99286.63
2022-11-22T19:28:32.704Z,99293.98
2022-11-22T19:31:10.673Z,99293.29
2022-11-22T19:33:43.445Z,99299.43
2022-11-22T19:36:18.416Z,99299.96
2022-11-22T19:38:48.611Z,99298.41
2022-11-22T19:41:22.526Z,99302.80
2022-11-22T19:43:52.923Z,99308.27
2022-11-22T19:46:24.320Z,99308.77
2022-11-22T19:48:57.375Z,99310.80
2022-11-22T19:51:29.909Z,99313.00
2022-11-22T19:54:05.390Z,99316.56
2022-11-22T19:56:39.126Z,99319.30
2022-11-22T19:59:16.062Z,99318.27
2022-11-22T20:01:47.068Z,99327.15
2022-11-22T20:04:17.792Z,99326.45
2022-11-22T20:06:50.120Z,99325.56
2022-11-22T20:09:30.097Z,99325.36
2022-11-22T20:12:00.099Z,99330.45
2022-11-22T20:14:30.328Z,99329.08
2022-11-22T20:17:00.616Z,99327.40
2022-11-22T20:19:34.205Z,99323.15
2022-11-22T20:22:04.507Z,99318.71
2022-11-22T20:24:35.236Z,99324.31
2022-11-22T20:27:06.200Z,99324.84
2022-11-22T20:29:38.169Z,99325.86
2022-11-22T20:32:08.438Z,99326.52
2022-11-22T20:34:37.741Z,99323.80
2022-11-22T20:37:07.792Z,99321.22
2022-11-22T20:39:38.463Z,99315.42
2022-11-22T20:42:32.973Z,99322.59
2022-11-22T20:44:59.274Z,99323.95
2022-11-22T20:47:31.420Z,99327.20
2022-11-22T20:50:00.912Z,99327.02
2022-11-22T20:52:30.512Z,99324.63
2022-11-22T20:55:04.807Z,99320.67
2022-11-22T20:57:35.703Z,99324.92
2022-11-22T21:00:05.547Z,99324.06
2022-11-22T21:02:35.488Z,99329.69
2022-11-22T21:05:04.468Z,99325.07
2022-11-22T21:07:34.338Z,99325.92
2022-11-22T21:10:05.233Z,99323.16
2022-11-22T21:12:34.030Z,99322.85
2022-11-22T21:15:03.113Z,99323.88
2022-11-22T21:17:56.045Z,99328.31
2022-11-22T21:20:21.837Z,99325.08
2022-11-22T21:22:54.364Z,99318.58
2022-11-22T21:25:23.325Z,99309.52
2022-11-22T21:27:52.456Z,99306.79
2022-11-22T21:30:22.034Z,99305.94
2022-11-22T21:32:51.022Z,99305.26
2022-11-22T21:35:19.462Z,99304.23
2022-11-22T21:37:47.891Z,99305.95
2022-11-22T21:40:16.355Z,99309.87
2022-11-22T21:43:10.200Z,99308.84
2022-11-22T21:45:38.681Z,99309.86
2022-11-22T21:48:07.888Z,99310.38
2022-11-22T21:50:36.326Z,99314.48
2022-11-22T21:53:05.334Z,99315.51
2022-11-22T21:55:33.794Z,99321.31
2022-11-22T21:58:02.456Z,99323.35
2022-11-22T22:00:30.980Z,99323.84
2022-11-22T22:02:59.343Z,99326.73
2022-11-22T22:05:27.860Z,99333.21
2022-11-22T22:07:56.250Z,99331.16
2022-11-22T22:10:24.752Z,99333.54
2022-11-22T22:12:53.153Z,99337.82
2022-11-22T22:15:21.648Z,99343.45
2022-11-22T22:17:53.867Z,99345.29
2022-11-22T22:20:23.172Z,99343.90
2022-11-22T22:22:51.609Z,99343.39
2022-11-22T22:25:20.010Z,99340.14
2022-11-22T22:27:48.531Z,99339.11
2022-11-22T22:30:17.208Z,99337.77
2022-11-22T22:32:45.536Z,99335.38
2022-11-22T22:35:13.899Z,99337.92
2022-11-22T22:37:42.284Z,99338.27
2022-11-22T22:40:11.023Z,99337.27
2022-11-22T22:42:40.546Z,99338.61
2022-11-22T22:45:11.257Z,99334.16
2022-11-22T22:47:39.701Z,99342.89
2022-11-22T22:50:08.378Z,99342.04
2022-11-22T22:52:36.918Z,99341.20
2022-11-22T22:55:05.755Z,99342.73
2022-11-22T22:57:34.158Z,99346.84
2022-11-22T23:00:02.713Z,99347.70
2022-11-22T23:02:31.122Z,99348.88
2022-11-22T23:05:13.287Z,99348.37
2022-11-22T23:07:44.009Z,99356.55
2022-11-22T23:10:12.641Z,99356.39
2022-11-22T23:12:41.186Z,99350.92
2022-11-22T23:15:10.055Z,99352.45
2022-11-22T23:17:38.386Z,99350.40
2022-11-22T23:20:07.272Z,99349.70
2022-11-22T23:22:35.656Z,99348.35
2022-11-22T23:25:04.365Z,99348.70
2022-11-22T23:27:33.167Z,99346.48
2022-11-22T23:30:01.635Z,99344.79
2022-11-22T23:32:31.845Z,99336.43
2022-11-22T23:35:00.255Z,99332.34
2022-11-22T23:37:28.633Z,99334.40
2022-11-22T23:39:57.102Z,99335.42
2022-11-22T23:42:25.436Z,99335.25
2022-11-22T23:45:19.095Z,99336.62
2022-11-22T23:47:51.099Z,99340.55
2022-11-22T23:50:20.363Z,99347.73
2022-11-22T23:52:54.394Z,99350.97
2022-11-22T23:55:22.748Z,99354.56
2022-11-22T23:57:51.158Z,99354.73
